Flight Track Log - Related Links

Times and Time Zones

All times are in EDT time to prevent confusion due to time zone crossing. See the SKW5467 flight status page for this flight to view local times or setup timezone preferences in your user account.


Time Position Orientation Groundspeed Altitude Reporting Facility
EDT Latitude Longitude Course Direction KTS MPH feet Rate Location/Type
Sun 08:33:41 AM 34.0406 -117.5664 267° West 171 197 2,700  Level Los Angeles Center
Sun 08:34:42 AM 34.0378 -117.6328 267° West 294 338 4,200 1,884 Climbing Los Angeles Center
Sun 08:35:42 AM 34.0811 -117.7078 305° West 279 321 6,500 2,200 Climbing Los Angeles Center
Sun 08:36:42 AM 34.1247 -117.7894 303° West 287 330 8,600 2,100 Climbing Los Angeles Center
Sun 08:37:42 AM 34.1689 -117.8739 302° West 297 342 10,700 1,736 Climbing Los Angeles Center
Sun 08:38:43 AM 34.2172 -117.9606 304° West 311 358 12,100 1,438 Climbing Los Angeles Center
Sun 08:39:43 AM 34.2686 -118.0561 303° West 335 386 13,600 1,400 Climbing Los Angeles Center
Sun 08:40:43 AM 34.3256 -118.1492 307° West 346 398 14,900 1,350 Climbing Los Angeles Center
Sun 08:41:43 AM 34.3883 -118.2428 309° West 359 413 16,300 1,289 Climbing Los Angeles Center
Sun 08:42:44 AM 34.4525 -118.3386 309° West 367 422 17,500 1,091 Climbing Los Angeles Center
Sun 08:43:44 AM 34.5181 -118.4347 310° West 371 427 18,500 950 Climbing Los Angeles Center
Sun 08:44:44 AM 34.5864 -118.5325 310° West 378 435 19,400 900 Climbing Los Angeles Center
Sun 08:45:44 AM 34.6544 -118.6381 308° West 398 458 20,300 893 Climbing Los Angeles Center
Sun 08:46:45 AM 34.7231 -118.7411 309° West 395 455 21,200 893 Climbing Los Angeles Center
Sun 08:47:45 AM 34.7925 -118.8442 309° West 394 453 22,100 900 Climbing Los Angeles Center
Sun 08:48:45 AM 34.8789 -118.9244 323° Northwest 394 453 23,000 893 Climbing Los Angeles Center
Sun 08:49:46 AM 34.9656 -118.9917 328° Northwest 388 447 23,900 496 Climbing Los Angeles Center
Sun 08:50:46 AM 35.0547 -119.0642 326° Northwest 387 445 24,000 50 Climbing Los Angeles Center
Sun 08:51:46 AM 35.1456 -119.1400 326° Northwest 394 453 24,000  Level Los Angeles Center
Sun 08:52:47 AM 35.2164 -119.2508 308° West 418 481 24,000  Level Los Angeles Center
Sun 08:53:47 AM 35.2803 -119.4056 297° West 424 488 24,000  Level Los Angeles Center
Sun 08:54:47 AM 35.3367 -119.5381 298° West 435 501 24,000  Level Los Angeles Center
Sun 08:55:48 AM 35.3928 -119.6728 297° West 442 509 24,000  Level Los Angeles Center
Sun 08:56:48 AM 35.4494 -119.8089 297° West 447 514 24,000  Level Los Angeles Center
Sun 08:57:49 AM 35.5047 -119.9425 297° West 442 509 24,000  Level Los Angeles Center
Sun 08:58:49 AM 35.5603 -120.0789 297° West 450 518 24,000  Level Los Angeles Center
Sun 08:59:49 AM 35.6175 -120.2217 296° West 452 520 24,000  Level Los Angeles Center
Sun 09:00:50 AM 35.6706 -120.3508 297° West 451 519 24,000  Level Los Angeles Center
Sun 09:01:50 AM 35.7250 -120.4872 296° West 450 518 24,000  Level Los Angeles Center
Sun 09:02:51 AM 35.7794 -120.6239 296° West 450 518 24,000  Level Los Angeles Center
Sun 09:03:51 AM 35.8375 -120.7603 298° West 452 520 24,000  Level Los Angeles Center
Sun 09:04:51 AM 35.9242 -120.8683 315° West 443 510 24,000  Level Los Angeles Center
Sun 09:05:52 AM 36.0094 -120.9806 313° West 447 514 24,000  Level Los Angeles Center
Sun 09:07:14 AM 36.1272 -121.1369 313° West 446 513 24,000  Level Oakland Center
Sun 09:08:14 AM 36.2128 -121.2483 314° West 446 513 24,000  Level Oakland Center
Sun 09:09:15 AM 36.2975 -121.3622 313° West 449 517 24,000  Level Oakland Center
Sun 09:10:15 AM 36.3828 -121.4731 314° West 446 513 24,000 -300 Level Oakland Center
Sun 09:11:15 AM 36.4669 -121.5892 312° West 452 520 23,400 -793 Descending Oakland Center
Sun 09:12:16 AM 36.5519 -121.7089 311° West 461 531 22,400 -1,041 Descending Oakland Center
Sun 09:13:16 AM 36.6514 -121.8414 313° West 463 533 21,300 -1,200 Descending Oakland Center
Sun 09:14:16 AM 36.7375 -121.9536 314° West 451 519 20,000 -645 Descending Oakland Center
Sun 09:15:17 AM 36.8503 -121.9900 346° North 424 488 20,000 -1,438 Level Oakland Center
Sun 09:16:17 AM 36.9600 -122.0203 348° North 402 463 17,100 -3,200 Descending Oakland Center
Sun 09:17:17 AM 37.0344 -122.1225 312° West 407 468 13,600 -3,223 Descending Oakland Center
Sun 09:18:18 AM 37.1217 -122.1922 327° Northwest 384 442 10,600 -2,132 Descending Oakland Center
Sun 09:19:18 AM 37.2139 -122.2253 344° North 344 396 9,300 -942 Descending Oakland Center
Sun 09:20:19 AM 37.2875 -122.2547 342° North 283 326 8,700 -1,140 Descending Oakland Center
Sun 09:21:19 AM 37.3547 -122.2769 345° North 251 289 7,000 -1,789 Descending Oakland Center
Sun 09:22:13 AM 37.4167 -122.2500 19° North 241 277 5,300 -1,667 Descending Northern Cal TRACON
Sun 09:23:07 AM 37.4500 -122.1833 58° Northeast 232 267 4,000 -1,350 Descending Northern Cal TRACON
Sun 09:24:13 AM 37.5000 -122.1500 28° Northeast 227 261 2,600 -750 Descending Northern Cal TRACON
Sun 09:25:07 AM 37.5333 -122.1833 322° Northwest 201 231 2,500 -440 Descending Northern Cal TRACON
Sun 09:26:02 AM 37.5667 -122.2333 310° West 183 211 1,800 -764 Descending Northern Cal TRACON

Login

Don't have an account? Register now (free) for customized features, flight alerts, and more!